Time;durP1;ratioP1;P1;durP2;ratioP2;P2;SDS_P1;SDS_P2;PMS_P1;PMS_P2;Temp;Humidity;BMP_temperature;BMP_pressure;BME280_temperature;BME280_humidity;BME280_pressure;Samples;Min_cycle;Max_cycle;Signal;HPM_P1;HPM_P2
2022/02/18 00:00:12;;;;;;;76.50;28.20;;;;;;;5.99;81.49;97456.55;25077;1315;3030206;-66
2022/02/18 00:02:46;;;;;;;117.30;34.90;;;;;;;6.10;80.58;97459.23;25028;1314;3049571;-70
2022/02/18 00:05:15;;;;;;;108.50;35.70;;;;;;;5.92;81.11;97453.05;25044;1314;3026842;-72
2022/02/18 00:07:48;;;;;;;105.20;36.50;;;;;;;5.85;81.72;97455.84;25075;1314;3058413;-69
2022/02/18 00:10:17;;;;;;;86.00;29.70;;;;;;;5.66;82.65;97470.36;25016;1315;3026620;-64
2022/02/18 00:12:47;;;;;;;88.90;31.90;;;;;;;6.04;81.78;97462.45;24995;1315;3026516;-71
2022/02/18 00:15:17;;;;;;;86.80;30.40;;;;;;;6.36;80.17;97459.37;25042;1314;3058377;-65
2022/02/18 00:17:47;;;;;;;80.30;29.00;;;;;;;6.29;80.28;97452.27;25037;1317;3029573;-70
2022/02/18 00:20:16;;;;;;;80.30;31.40;;;;;;;6.20;80.57;97449.77;25060;1314;3026215;-64
2022/02/18 00:22:46;;;;;;;80.30;31.50;;;;;;;6.06;81.30;97457.46;25005;1317;3026115;-68
2022/02/18 00:25:16;;;;;;;69.20;26.90;;;;;;;5.87;82.25;97461.23;24979;1317;3026707;-73
2022/02/18 00:27:47;;;;;;;64.60;25.40;;;;;;;6.18;81.76;97456.92;25031;1315;3026659;-68
2022/02/18 00:30:16;;;;;;;58.20;24.00;;;;;;;6.44;80.48;97455.86;25088;1316;3027863;-69
2022/02/18 00:32:45;;;;;;;51.00;23.50;;;;;;;6.31;80.68;97452.26;25098;1314;3068370;-70
2022/02/18 00:35:19;;;;;;;58.10;25.20;;;;;;;6.16;81.29;97454.98;25018;1315;3026471;-62
2022/02/18 00:37:49;;;;;;;64.30;28.50;;;;;;;5.99;82.05;97461.76;24989;1315;3051772;-66
2022/02/18 00:40:18;;;;;;;71.20;26.80;;;;;;;5.90;82.58;97461.73;24999;1316;3026266;-69
2022/02/18 00:42:49;;;;;;;95.40;32.40;;;;;;;6.20;82.22;97464.90;25075;1315;3026225;-64
2022/02/18 00:45:18;;;;;;;98.40;31.00;;;;;;;6.62;80.28;97463.03;24969;1317;3026477;-69
2022/02/18 00:47:47;;;;;;;101.70;35.10;;;;;;;6.59;80.28;97467.23;24990;1314;3051901;-68
2022/02/18 00:50:18;;;;;;;81.20;31.50;;;;;;;6.27;81.15;97475.70;25042;1314;3026933;-68
2022/02/18 00:52:48;;;;;;;100.10;35.20;;;;;;;6.07;82.07;97479.46;25056;1316;3026201;-68
2022/02/18 00:55:17;;;;;;;97.30;34.00;;;;;;;6.00;82.86;97474.88;25011;1317;3026421;-70
2022/02/18 00:57:46;;;;;;;98.70;34.00;;;;;;;6.47;81.63;97464.46;25031;1314;3026993;-71
2022/02/18 01:00:17;;;;;;;96.90;36.10;;;;;;;6.64;80.73;97462.67;25102;1314;3026760;-64
2022/02/18 01:02:46;;;;;;;101.00;36.00;;;;;;;6.53;80.90;97465.09;25071;1314;3026576;-69
2022/02/18 01:05:15;;;;;;;106.30;38.20;;;;;;;6.43;81.19;97461.60;25050;1317;3052623;-64
2022/02/18 01:07:44;;;;;;;92.80;34.70;;;;;;;6.37;81.62;97463.98;25053;1314;3027443;-64
2022/02/18 01:10:13;;;;;;;61.60;25.60;;;;;;;6.15;82.55;97459.85;25035;1317;3028333;-66
2022/02/18 01:12:46;;;;;;;51.90;21.90;;;;;;;6.54;81.56;97456.27;25058;1314;3050916;-66
2022/02/18 01:15:15;;;;;;;50.20;21.10;;;;;;;7.01;79.82;97452.02;25068;1315;3026576;-71
2022/02/18 01:17:45;;;;;;;50.20;22.90;;;;;;;6.87;79.39;97458.84;25033;1314;3028517;-66
2022/02/18 01:20:14;;;;;;;48.90;22.40;;;;;;;6.74;79.97;97461.75;25024;1316;3027646;-70
2022/02/18 01:22:45;;;;;;;56.40;23.70;;;;;;;6.46;81.00;97456.22;25020;1315;3070395;-66
2022/02/18 01:25:15;;;;;;;49.80;22.80;;;;;;;6.25;81.72;97458.60;25051;1314;3026729;-73
2022/02/18 01:27:46;;;;;;;44.20;18.70;;;;;;;6.17;82.44;97451.08;25030;1314;3050596;-64
2022/02/18 01:30:15;;;;;;;44.80;19.80;;;;;;;6.73;80.92;97448.75;25054;1314;3026713;-66
2022/02/18 01:32:45;;;;;;;43.20;21.30;;;;;;;6.90;79.68;97458.60;25036;1317;3026165;-64
2022/02/18 01:35:17;;;;;;;43.60;20.10;;;;;;;6.85;79.82;97459.86;25048;1314;3027448;-69
2022/02/18 01:37:48;;;;;;;52.70;22.40;;;;;;;6.73;80.13;97465.12;25042;1314;3026229;-70
2022/02/18 01:40:18;;;;;;;46.80;22.20;;;;;;;6.44;81.20;97471.45;25073;1317;3026473;-65
2022/02/18 01:42:47;;;;;;;53.30;22.80;;;;;;;6.31;82.00;97465.52;24947;1317;3026848;-68
2022/02/18 01:45:16;;;;;;;49.20;19.10;;;;;;;6.20;82.66;97465.09;25007;1317;3052184;-69
2022/02/18 01:47:46;;;;;;;48.40;19.80;;;;;;;6.71;81.12;97452.41;25056;1315;3026507;-64
2022/02/18 01:50:14;;;;;;;44.80;19.60;;;;;;;7.18;79.14;97443.52;25025;1314;3026669;-68
2022/02/18 01:52:47;;;;;;;51.40;20.80;;;;;;;7.10;78.74;97444.53;25034;1318;3055001;-64
2022/02/18 01:55:16;;;;;;;55.00;22.60;;;;;;;6.88;79.68;97445.85;25023;1315;3027193;-67
2022/02/18 01:57:56;;;;;;;55.80;22.70;;;;;;;6.62;80.73;97445.09;25050;1314;3028002;-68
2022/02/18 02:00:27;;;;;;;58.70;23.80;;;;;;;6.45;81.46;97445.13;25075;1315;3055926;-70
2022/02/18 02:02:56;;;;;;;47.50;21.10;;;;;;;6.26;82.51;97450.88;25015;1313;3026232;-67
2022/02/18 02:05:25;;;;;;;45.40;19.40;;;;;;;6.66;81.50;97446.70;25064;1314;3027224;-66
2022/02/18 02:07:54;;;;;;;46.70;19.80;;;;;;;6.98;80.05;97445.61;25017;1315;3054845;-67
2022/02/18 02:10:25;;;;;;;52.80;21.50;;;;;;;7.02;79.44;97444.59;25072;1318;3027456;-66
2022/02/18 02:12:55;;;;;;;53.00;20.90;;;;;;;7.00;79.46;97443.70;24982;1314;3025946;-65
2022/02/18 02:15:39;;;;;;;52.10;24.20;;;;;;;6.71;80.35;97445.95;24999;1314;3051750;-69
2022/02/18 02:18:14;;;;;;;52.20;23.90;;;;;;;6.61;80.84;97443.27;25032;1317;3054990;-68
2022/02/18 02:20:43;;;;;;;88.50;28.80;;;;;;;6.56;81.13;97450.27;24980;1316;3029664;-65
2022/02/18 02:23:12;;;;;;;86.60;28.50;;;;;;;6.90;80.81;97457.91;24984;1314;3048919;-65
2022/02/18 02:25:43;;;;;;;99.50;33.50;;;;;;;7.20;78.79;97457.13;24963;1315;3026445;-66
2022/02/18 02:28:21;;;;;;;107.70;39.40;;;;;;;7.01;79.63;97458.30;25057;1314;3055287;-62
2022/02/18 02:30:52;;;;;;;107.70;41.40;;;;;;;6.82;80.01;97465.84;25056;1315;3026201;-68
2022/02/18 02:33:22;;;;;;;119.80;40.80;;;;;;;6.69;80.55;97469.22;25066;1314;3026550;-67
2022/02/18 02:35:52;;;;;;;94.80;32.50;;;;;;;6.43;81.67;97469.77;24971;1316;3030114;-66
2022/02/18 02:38:21;;;;;;;121.20;39.80;;;;;;;6.97;80.32;97471.27;24949;1317;3026408;-69
2022/02/18 02:40:50;;;;;;;100.70;35.70;;;;;;;7.33;78.93;97476.69;25008;1317;3051569;-70
2022/02/18 02:43:19;;;;;;;60.40;24.10;;;;;;;7.23;78.70;97483.73;25000;1315;3026346;-69
2022/02/18 02:45:49;;;;;;;87.40;33.40;;;;;;;6.89;79.57;97485.80;25052;1314;3055621;-66
2022/02/18 02:48:18;;;;;;;79.40;31.30;;;;;;;6.89;79.84;97492.22;25025;1314;3027723;-66
2022/02/18 02:50:56;;;;;;;68.20;27.80;;;;;;;6.70;80.18;97502.39;25071;1315;3053045;-70
2022/02/18 02:53:26;;;;;;;48.00;21.10;;;;;;;6.58;81.05;97500.70;25054;1314;3026761;-70
2022/02/18 02:55:55;;;;;;;47.40;20.70;;;;;;;7.11;79.86;97502.95;24981;1317;3026330;-67
2022/02/18 02:58:24;;;;;;;58.50;22.10;;;;;;;7.30;78.64;97495.17;24757;1317;3393032;-71
2022/02/18 03:00:54;;;;;;;49.10;22.40;;;;;;;7.17;78.98;97496.56;25031;1317;3026612;-67
2022/02/18 03:03:37;;;;;;;53.00;23.30;;;;;;;6.80;80.19;97488.95;24965;1317;3052800;-69
2022/02/18 03:06:07;;;;;;;51.30;22.50;;;;;;;6.70;80.72;97493.73;25023;1314;3026777;-70
2022/02/18 03:08:39;;;;;;;52.70;23.80;;;;;;;6.60;80.98;97485.37;25034;1314;3026585;-69
2022/02/18 03:11:15;;;;;;;42.70;21.20;;;;;;;6.45;81.90;97477.00;24995;1314;3070876;-69
2022/02/18 03:13:48;;;;;;;49.50;21.30;;;;;;;7.07;80.06;97479.58;25014;1314;3027139;-66
2022/02/18 03:16:18;;;;;;;49.20;22.50;;;;;;;7.13;79.15;97480.85;25034;1317;3026217;-68
2022/02/18 03:18:51;;;;;;;49.60;22.00;;;;;;;7.09;79.41;97472.83;24910;1317;3027105;-68
2022/02/18 03:21:20;;;;;;;48.80;24.40;;;;;;;6.83;80.15;97467.98;24979;1317;3026963;-72
2022/02/18 03:23:49;;;;;;;63.20;27.50;;;;;;;6.80;80.51;97457.95;24986;1315;3052151;-63
2022/02/18 03:26:21;;;;;;;65.20;28.90;;;;;;;6.64;80.94;97456.55;24965;1314;3026359;-66
2022/02/18 03:29:01;;;;;;;47.40;19.30;;;;;;;6.53;81.62;97453.58;25036;1314;3059157;-62
2022/02/18 03:31:53;;;;;;;48.70;21.40;;;;;;;7.02;80.19;97447.55;25002;1315;3051722;-61
2022/02/18 03:34:22;;;;;;;59.20;24.20;;;;;;;7.07;79.50;97439.36;24917;1316;3027042;-65
2022/02/18 03:36:53;;;;;;;65.90;24.10;;;;;;;6.93;79.99;97446.21;24953;1318;3026745;-69
2022/02/18 03:39:24;;;;;;;53.00;24.00;;;;;;;6.68;80.77;97453.14;25082;1314;3027754;-64
2022/02/18 03:41:52;;;;;;;55.20;23.30;;;;;;;6.64;81.03;97465.64;24985;1314;3026658;-63
2022/02/18 03:44:22;;;;;;;48.70;20.20;;;;;;;6.61;81.26;97477.35;24988;1317;3050649;-72
2022/02/18 03:46:59;;;;;;;64.10;22.40;;;;;;;7.17;79.62;97484.71;24964;1317;3067489;-68
2022/02/18 03:49:28;;;;;;;82.70;33.10;;;;;;;7.53;77.80;97495.96;25051;1317;3025957;-66
2022/02/18 03:51:57;;;;;;;68.50;28.20;;;;;;;7.34;77.90;97499.58;25025;1314;3050386;-70
2022/02/18 03:54:27;;;;;;;56.80;23.60;;;;;;;7.26;77.98;97511.35;25020;1318;3028271;-71
2022/02/18 03:56:57;;;;;;;62.20;25.60;;;;;;;7.12;78.36;97523.92;25050;1315;3026849;-65
2022/02/18 03:59:28;;;;;;;51.80;24.50;;;;;;;6.96;78.68;97517.80;25001;1317;3028645;-65
2022/02/18 04:01:59;;;;;;;38.40;18.40;;;;;;;6.95;78.63;97514.45;24937;1315;3027562;-68
2022/02/18 04:04:28;;;;;;;42.10;19.00;;;;;;;7.26;78.30;97516.35;25034;1318;3028298;-66
2022/02/18 04:07:12;;;;;;;46.90;22.40;;;;;;;7.76;76.35;97510.38;25024;1317;3052178;-69
2022/02/18 04:09:51;;;;;;;48.30;23.50;;;;;;;7.61;76.31;97521.15;25112;1315;3055326;-72
2022/02/18 04:12:23;;;;;;;55.90;24.10;;;;;;;7.49;76.19;97526.95;24918;1317;3027528;-64
2022/02/18 04:14:56;;;;;;;50.10;24.90;;;;;;;7.05;77.75;97530.89;25009;1317;3026378;-63
2022/02/18 04:17:27;;;;;;;52.00;26.00;;;;;;;6.85;78.55;97541.27;25039;1315;3026618;-68
2022/02/18 04:20:14;;;;;;;47.70;19.90;;;;;;;6.53;80.31;97532.70;25057;1314;3051055;-70
2022/02/18 04:22:55;;;;;;;44.00;19.50;;;;;;;7.27;78.36;97523.81;25057;1315;3069792;-64
2022/02/18 04:25:36;;;;;;;49.30;22.50;;;;;;;7.52;76.41;97517.35;25028;1315;3052344;-66
2022/02/18 04:28:05;;;;;;;48.30;22.60;;;;;;;7.32;76.93;97521.10;25016;1314;3026965;-71
2022/02/18 04:30:34;;;;;;;54.10;26.30;;;;;;;7.23;76.96;97519.78;25048;1317;3026497;-66
2022/02/18 04:33:03;;;;;;;57.10;28.50;;;;;;;7.13;76.80;97524.88;25006;1314;3027098;-72
2022/02/18 04:35:32;;;;;;;54.50;26.60;;;;;;;6.94;77.59;97534.36;25033;1317;3053995;-64
2022/02/18 04:38:01;;;;;;;47.70;21.50;;;;;;;6.83;78.00;97538.50;25012;1314;3026756;-69
2022/02/18 04:40:31;;;;;;;50.30;21.00;;;;;;;7.24;77.17;97544.56;25031;1317;3051179;-70
2022/02/18 04:43:00;;;;;;;45.20;23.60;;;;;;;7.43;76.60;97560.16;25082;1314;3026463;-66
2022/02/18 04:45:31;;;;;;;57.20;27.00;;;;;;;7.42;76.04;97562.13;25058;1314;3069190;-67
2022/02/18 04:48:00;;;;;;;61.50;27.50;;;;;;;7.28;76.55;97563.42;25020;1315;3027106;-70
2022/02/18 04:50:29;;;;;;;56.30;26.70;;;;;;;7.08;77.06;97563.54;25103;1314;3051030;-67
2022/02/18 04:52:58;;;;;;;57.40;27.80;;;;;;;6.88;77.82;97564.86;25040;1314;3026595;-66
2022/02/18 04:55:27;;;;;;;54.10;23.80;;;;;;;6.55;79.44;97573.65;25053;1314;3051515;-63
2022/02/18 04:57:56;;;;;;;60.60;24.50;;;;;;;7.26;77.84;97569.83;25019;1314;3026442;-67
2022/02/18 05:00:25;;;;;;;52.40;24.60;;;;;;;7.67;75.74;97567.89;25001;1317;3028610;-67
2022/02/18 05:02:54;;;;;;;52.30;25.90;;;;;;;7.68;74.81;97573.04;24979;1317;3054846;-66
2022/02/18 05:05:24;;;;;;;56.80;26.20;;;;;;;7.27;75.96;97575.02;25026;1314;3029352;-67
2022/02/18 05:07:53;;;;;;;62.90;27.20;;;;;;;6.95;77.31;97583.39;24982;1314;3052385;-68
2022/02/18 05:10:21;;;;;;;61.20;30.10;;;;;;;6.85;77.52;97580.30;25054;1317;3026758;-72
2022/02/18 05:12:55;;;;;;;60.20;28.10;;;;;;;6.65;78.47;97578.61;25059;1314;3056413;-69
2022/02/18 05:15:25;;;;;;;48.80;23.00;;;;;;;6.60;78.78;97571.88;24982;1314;3026896;-68
2022/02/18 05:17:54;;;;;;;58.40;24.50;;;;;;;6.95;77.94;97575.88;25076;1316;3027979;-68
2022/02/18 05:20:23;;;;;;;51.70;23.60;;;;;;;7.53;76.21;97583.05;25071;1317;3058811;-70
2022/02/18 05:22:52;;;;;;;63.50;25.10;;;;;;;7.65;74.76;97588.42;25018;1317;3026780;-68
2022/02/18 05:25:22;;;;;;;60.10;27.40;;;;;;;7.47;74.81;97593.46;25070;1314;3052063;-71
2022/02/18 05:27:53;;;;;;;70.70;32.60;;;;;;;7.05;75.87;97594.42;25016;1314;3026526;-62
2022/02/18 05:30:22;;;;;;;69.80;33.20;;;;;;;6.85;76.37;97609.88;25051;1314;3026290;-67
2022/02/18 05:32:51;;;;;;;66.90;30.70;;;;;;;6.73;76.78;97617.70;25008;1317;3054674;-68
2022/02/18 05:35:20;;;;;;;59.00;26.50;;;;;;;6.85;77.04;97629.73;25030;1314;3026845;-72
2022/02/18 05:37:50;;;;;;;52.30;26.40;;;;;;;7.36;75.26;97620.79;25011;1317;3052326;-68
2022/02/18 05:40:20;;;;;;;61.90;29.10;;;;;;;7.25;74.65;97618.48;25083;1314;3026964;-67
2022/02/18 05:42:49;;;;;;;58.40;28.00;;;;;;;7.05;75.17;97624.54;25095;1317;3026632;-69
2022/02/18 05:45:20;;;;;;;60.10;30.60;;;;;;;6.73;75.92;97617.52;25055;1314;3055119;-68
2022/02/18 05:47:53;;;;;;;63.80;31.00;;;;;;;6.44;77.18;97620.52;25075;1314;3027558;-66
2022/02/18 05:50:24;;;;;;;53.20;27.60;;;;;;;6.44;76.79;97619.30;25071;1315;3056694;-69
2022/02/18 05:52:54;;;;;;;52.20;27.10;;;;;;;6.87;76.37;97616.13;25088;1317;3026607;-63
2022/02/18 05:55:22;;;;;;;53.00;24.70;;;;;;;7.21;75.00;97615.19;25110;1314;3028301;-64
2022/02/18 05:57:52;;;;;;;53.00;27.40;;;;;;;7.30;74.48;97613.61;25028;1314;3057520;-67
2022/02/18 06:00:21;;;;;;;52.80;25.50;;;;;;;7.13;74.31;97614.38;25032;1314;3026733;-68
2022/02/18 06:02:52;;;;;;;65.20;31.00;;;;;;;7.09;74.00;97616.78;25055;1314;3055035;-64
2022/02/18 06:05:21;;;;;;;62.10;29.50;;;;;;;6.82;74.76;97619.46;25133;1314;3030869;-68
2022/02/18 06:07:50;;;;;;;58.80;30.90;;;;;;;6.77;74.53;97617.36;25090;1315;3052267;-71
2022/02/18 06:10:19;;;;;;;56.60;26.10;;;;;;;6.62;75.17;97613.10;25070;1317;3026358;-67
2022/02/18 06:12:49;;;;;;;47.70;24.00;;;;;;;7.03;74.45;97608.33;25064;1314;3048204;-69
2022/02/18 06:15:18;;;;;;;42.70;21.40;;;;;;;7.12;73.87;97601.91;25109;1314;3026711;-67
2022/02/18 06:17:48;;;;;;;50.70;25.70;;;;;;;7.20;73.07;97604.12;25046;1314;3026414;-71
2022/02/18 06:20:17;;;;;;;43.90;24.00;;;;;;;6.86;74.00;97611.16;25074;1316;3026460;-62
2022/02/18 06:22:46;;;;;;;55.20;24.90;;;;;;;6.83;74.10;97621.51;25090;1314;3053879;-65
2022/02/18 06:25:15;;;;;;;55.50;24.10;;;;;;;6.69;74.30;97633.14;25055;1314;3028766;-69
2022/02/18 06:27:44;;;;;;;47.50;24.70;;;;;;;6.65;74.21;97638.48;25082;1317;3026349;-68
2022/02/18 06:30:15;;;;;;;47.90;22.60;;;;;;;6.62;74.08;97646.34;25062;1314;3055374;-68
2022/02/18 06:32:46;;;;;;;60.20;26.40;;;;;;;6.53;74.60;97655.02;25095;1314;3026223;-73
2022/02/18 06:35:15;;;;;;;51.00;22.50;;;;;;;7.03;74.12;97656.39;25063;1314;3026198;-65
2022/02/18 06:37:44;;;;;;;53.50;23.30;;;;;;;7.38;72.03;97653.56;25059;1315;3054301;-70
2022/02/18 06:40:15;;;;;;;48.40;23.30;;;;;;;7.37;71.91;97654.55;25033;1315;3027714;-70
2022/02/18 06:42:44;;;;;;;55.20;25.30;;;;;;;7.11;72.30;97658.05;25073;1317;3027182;-72
2022/02/18 06:45:17;;;;;;;48.90;24.70;;;;;;;6.97;72.78;97660.53;25107;1314;3054762;-71
2022/02/18 06:47:48;;;;;;;47.80;21.90;;;;;;;6.82;73.06;97663.89;25059;1314;3054139;-66
2022/02/18 06:50:17;;;;;;;50.40;25.10;;;;;;;6.77;72.54;97663.52;25023;1315;3026369;-71
2022/02/18 06:52:48;;;;;;;54.10;23.40;;;;;;;6.62;73.06;97671.71;25061;1316;3050932;-68
2022/02/18 06:55:18;;;;;;;38.60;18.10;;;;;;;6.53;73.74;97671.52;25157;1314;3027327;-65
2022/02/18 06:57:47;;;;;;;44.00;20.70;;;;;;;7.17;72.55;97667.33;25008;1317;3026561;-72
2022/02/18 07:00:16;;;;;;;46.40;20.40;;;;;;;7.78;70.20;97667.06;25068;1314;3026523;-71
2022/02/18 07:02:47;;;;;;;45.60;20.10;;;;;;;7.78;69.70;97670.34;25104;1317;3054113;-64
2022/02/18 07:05:16;;;;;;;39.30;22.70;;;;;;;7.65;69.89;97675.23;25074;1314;3026482;-68
2022/02/18 07:07:46;;;;;;;41.40;23.30;;;;;;;7.46;70.20;97675.45;25069;1314;3053966;-67
2022/02/18 07:10:15;;;;;;;52.60;22.90;;;;;;;7.30;70.58;97673.16;25099;1314;3026470;-65
2022/02/18 07:12:44;;;;;;;44.20;21.90;;;;;;;7.12;70.81;97670.00;25053;1314;3051340;-63
2022/02/18 07:15:13;;;;;;;53.00;24.30;;;;;;;7.04;70.33;97673.71;25121;1316;3026642;-67
2022/02/18 07:17:42;;;;;;;48.00;22.60;;;;;;;6.83;71.00;97678.55;25041;1317;3068597;-67
2022/02/18 07:20:12;;;;;;;53.60;25.40;;;;;;;6.78;71.21;97681.23;25004;1315;3027131;-73
2022/02/18 07:22:44;;;;;;;53.50;25.90;;;;;;;6.58;71.46;97690.30;25126;1315;3054018;-68
2022/02/18 07:25:16;;;;;;;49.60;24.20;;;;;;;6.45;71.24;97698.02;24993;1314;3026227;-63
2022/02/18 07:27:44;;;;;;;55.10;25.20;;;;;;;6.39;71.55;97695.15;25077;1314;3026772;-65
2022/02/18 07:30:14;;;;;;;45.50;19.00;;;;;;;6.49;71.61;97711.52;25053;1314;3026747;-64
2022/02/18 07:32:43;;;;;;;41.70;20.00;;;;;;;7.10;70.16;97721.49;25047;1315;3070465;-68
2022/02/18 07:35:12;;;;;;;37.40;19.30;;;;;;;7.61;68.28;97707.25;25048;1314;3027614;-67
2022/02/18 07:37:42;;;;;;;32.50;16.00;;;;;;;7.52;67.71;97719.42;25007;1314;3055004;-65
2022/02/18 07:40:12;;;;;;;36.90;18.80;;;;;;;7.52;67.29;97726.52;25078;1314;3026330;-71
2022/02/18 07:42:43;;;;;;;41.40;20.20;;;;;;;7.17;68.28;97723.61;25096;1314;3026433;-69
2022/02/18 07:45:12;;;;;;;40.50;19.80;;;;;;;7.09;68.28;97727.48;25127;1314;3027742;-67
2022/02/18 07:47:41;;;;;;;44.10;20.60;;;;;;;6.99;68.33;97723.30;25136;1314;3026459;-65
2022/02/18 07:50:10;;;;;;;43.20;21.60;;;;;;;6.91;68.39;97724.30;25023;1317;3052718;-67
2022/02/18 07:52:40;;;;;;;47.80;20.70;;;;;;;6.85;68.41;97728.54;25101;1316;3026933;-64
2022/02/18 07:55:11;;;;;;;40.40;19.90;;;;;;;6.76;68.77;97729.58;25071;1315;3026776;-70
2022/02/18 07:57:40;;;;;;;47.20;20.30;;;;;;;6.89;68.36;97736.96;25117;1314;3048300;-65
2022/02/18 08:00:09;;;;;;;39.70;19.80;;;;;;;6.84;68.03;97740.95;25061;1314;3027249;-68
2022/02/18 08:02:44;;;;;;;37.90;18.10;;;;;;;6.76;68.39;97739.61;25079;1314;3071270;-67
2022/02/18 08:05:17;;;;;;;42.70;18.20;;;;;;;6.78;68.00;97741.70;25088;1314;3026649;-70
2022/02/18 08:07:46;;;;;;;29.40;17.00;;;;;;;6.73;68.42;97741.27;25090;1314;3026937;-66
2022/02/18 08:10:15;;;;;;;38.60;19.80;;;;;;;6.73;68.31;97746.67;25116;1314;3026476;-67
2022/02/18 08:12:46;;;;;;;39.20;16.90;;;;;;;6.79;68.09;97748.77;25153;1314;3026488;-66
2022/02/18 08:15:15;;;;;;;36.90;17.60;;;;;;;6.72;68.10;97752.11;25118;1314;3026794;-67
2022/02/18 08:17:45;;;;;;;34.20;14.20;;;;;;;6.66;68.37;97759.67;25120;1314;3027773;-67
2022/02/18 08:20:14;;;;;;;29.90;15.00;;;;;;;6.50;68.53;97765.55;25114;1314;3026688;-67
2022/02/18 08:22:44;;;;;;;29.40;15.30;;;;;;;6.54;68.62;97755.27;25126;1314;3028630;-65
2022/02/18 08:25:13;;;;;;;33.20;14.30;;;;;;;6.57;68.87;97756.64;25126;1314;3027554;-65
2022/02/18 08:27:44;;;;;;;29.70;13.50;;;;;;;6.62;68.19;97762.74;25117;1314;3053527;-64
2022/02/18 08:30:13;;;;;;;25.80;13.40;;;;;;;6.45;68.65;97769.52;25136;1314;3026439;-62
2022/02/18 08:32:44;;;;;;;32.90;13.50;;;;;;;6.47;68.59;97760.33;25030;1314;3026803;-63
2022/02/18 08:35:13;;;;;;;28.30;14.40;;;;;;;6.42;68.72;97766.79;25056;1314;3027629;-67
2022/02/18 08:37:42;;;;;;;24.50;12.00;;;;;;;6.51;68.82;97761.77;25045;1314;3068326;-65
2022/02/18 08:40:11;;;;;;;30.30;12.50;;;;;;;6.70;68.36;97764.76;25074;1314;3027018;-63
2022/02/18 08:42:42;;;;;;;22.80;10.30;;;;;;;6.60;68.10;97773.30;25104;1314;3050107;-64
2022/02/18 08:45:11;;;;;;;25.60;8.00;;;;;;;6.46;67.99;97773.95;25073;1314;3026927;-63
2022/02/18 08:52:21;;;;;;;13.20;6.00;;;;;;;6.33;68.56;97776.10;9635;1322;3064895;-71
2022/02/18 08:55:30;;;;;;;15.10;7.00;;;;;;;6.40;68.51;97773.54;10578;1322;3081426;-68
2022/02/18 08:59:03;;;;;;;13.50;6.00;;;;;;;6.55;68.38;97766.36;10397;1317;3065270;-66
2022/02/18 09:01:48;;;;;;;17.20;6.10;;;;;;;6.68;68.05;97762.28;7915;1319;3120568;-68
2022/02/18 09:04:25;;;;;;;17.20;6.10;;;;;;;6.72;67.72;97770.20;3215;1317;3143261;-68
2022/02/18 09:06:57;;;;;;;17.20;6.10;;;;;;;6.96;67.46;97767.95;3444;1324;3132846;-67
2022/02/18 09:09:37;;;;;;;23.90;8.70;;;;;;;7.55;67.08;97765.88;9934;1317;3118589;-68
2022/02/18 09:12:20;;;;;;;14.00;7.20;;;;;;;8.07;64.31;97772.93;11877;1317;3091199;-67
2022/02/18 09:23:21;;;;;;;8.90;5.40;;;;;;;8.04;64.29;97787.14;9149;1321;3152705;-67
2022/02/18 09:26:04;;;;;;;8.90;5.40;;;;;;;7.53;65.55;97787.67;7212;1321;3128798;-70
2022/02/18 09:28:38;;;;;;;8.90;5.40;;;;;;;7.67;65.46;97793.05;2266;1325;3138395;-66
2022/02/18 09:31:15;;;;;;;8.90;5.40;;;;;;;7.78;64.45;97790.42;2465;1324;3137564;-67
2022/02/18 09:33:53;;;;;;;8.90;5.40;;;;;;;8.03;63.65;97793.83;2328;1321;3148789;-69
2022/02/18 09:36:26;;;;;;;8.90;5.40;;;;;;;8.19;63.28;97797.09;2220;1324;3148605;-68
2022/02/18 09:38:57;;;;;;;8.90;5.40;;;;;;;8.03;63.38;97799.04;1983;1321;3132789;-68
2022/02/18 09:41:35;;;;;;;8.90;5.40;;;;;;;8.33;62.76;97795.35;1984;1323;3129384;-68
2022/02/18 09:44:07;;;;;;;8.90;5.40;;;;;;;8.57;62.16;97797.34;2279;1322;3141472;-67
2022/02/18 09:46:42;;;;;;;8.90;5.40;;;;;;;8.71;61.59;97808.09;2338;1322;3148556;-72
2022/02/18 09:49:52;;;;;;;8.90;5.40;;;;;;;8.53;61.88;97809.69;2300;1323;3120406;-68
2022/02/18 09:53:02;;;;;;;14.10;7.80;;;;;;;8.55;62.08;97805.16;6155;1318;3128832;-72
2022/02/18 09:56:02;;;;;;;11.30;6.90;;;;;;;8.14;63.20;97814.41;7505;1320;3155723;-68
2022/02/18 09:58:40;;;;;;;13.10;6.40;;;;;;;7.78;64.42;97809.98;5355;1320;3127503;-69
2022/02/18 10:01:15;;;;;;;13.10;6.40;;;;;;;7.41;65.10;97810.33;2637;1322;3102108;-68
2022/02/18 10:03:47;;;;;;;11.10;7.00;;;;;;;7.63;64.75;97817.89;25113;1314;3054965;-61
2022/02/18 10:06:16;;;;;;;14.20;6.20;;;;;;;7.59;64.48;97820.46;25037;1314;3027985;-61
2022/02/18 10:08:48;;;;;;;7.80;5.30;;;;;;;7.23;65.87;97829.89;25084;1314;3048178;-66
2022/02/18 10:11:17;;;;;;;7.90;6.20;;;;;;;7.02;66.69;97838.41;25122;1314;3026430;-63
2022/02/18 10:13:46;;;;;;;12.40;6.40;;;;;;;6.91;67.03;97837.96;25059;1314;3026911;-65
2022/02/18 10:16:23;;;;;;;12.60;5.50;;;;;;;6.86;67.60;97838.48;25134;1314;3050852;-64
2022/02/18 10:18:59;;;;;;;9.70;6.00;;;;;;;6.71;67.62;97852.75;25126;1314;3052983;-63
2022/02/18 10:21:32;;;;;;;13.80;6.10;;;;;;;6.72;67.40;97852.30;25144;1314;3056044;-63
2022/02/18 10:24:14;;;;;;;9.20;4.90;;;;;;;6.75;67.27;97850.04;25121;1314;3054841;-63
2022/02/18 10:26:50;;;;;;;11.60;4.90;;;;;;;6.93;66.66;97858.11;25095;1314;3051486;-63
2022/02/18 10:29:57;;;;;;;9.10;5.40;;;;;;;6.88;66.52;97871.95;25086;1317;3052238;-64
2022/02/18 10:32:26;;;;;;;10.80;5.50;;;;;;;6.80;66.75;97870.55;25143;1314;3051378;-66
2022/02/18 10:35:01;;;;;;;11.30;5.40;;;;;;;6.70;67.41;97877.65;25151;1317;3027479;-68
2022/02/18 10:37:30;;;;;;;11.30;7.20;;;;;;;6.60;67.83;97895.77;25202;1316;3054237;-66
2022/02/18 10:40:14;;;;;;;11.50;7.30;;;;;;;6.44;68.50;97892.53;25171;1314;3026525;-67
2022/02/18 10:42:47;;;;;;;14.00;8.00;;;;;;;6.43;68.82;97903.08;25074;1315;3071339;-69
2022/02/18 10:45:19;;;;;;;7.80;5.20;;;;;;;6.33;69.07;97913.77;25180;1314;3026569;-67
2022/02/18 10:47:50;;;;;;;8.60;5.30;;;;;;;6.15;69.36;97920.23;25205;1314;3026091;-69
2022/02/18 10:50:23;;;;;;;8.40;4.40;;;;;;;6.16;69.66;97922.25;25156;1313;3026455;-64
2022/02/18 10:53:12;;;;;;;8.60;5.10;;;;;;;6.76;68.45;97917.98;25164;1313;3057090;-68
2022/02/18 10:55:52;;;;;;;14.90;6.90;;;;;;;7.33;66.29;97910.20;25093;1314;3050479;-67
2022/02/18 10:58:46;;;;;;;18.10;8.40;;;;;;;7.21;66.09;97914.33;25203;1314;3053556;-67
2022/02/18 11:01:18;;;;;;;23.40;7.60;;;;;;;6.95;66.70;97923.96;25157;1314;3051832;-67
2022/02/18 11:03:51;;;;;;;18.40;6.90;;;;;;;6.76;67.17;97923.90;25173;1314;3026939;-66
2022/02/18 11:06:28;;;;;;;11.90;5.80;;;;;;;6.80;67.01;97924.67;25129;1314;3048170;-65
2022/02/18 11:09:06;;;;;;;12.50;5.90;;;;;;;6.53;67.92;97937.85;25194;1314;3050800;-69
2022/02/18 11:11:36;;;;;;;11.10;6.30;;;;;;;6.39;68.38;97941.06;25210;1313;3052996;-66
2022/02/18 11:14:11;;;;;;;11.00;6.20;;;;;;;6.27;68.55;97954.38;25214;1314;3026078;-66
2022/02/18 11:16:52;;;;;;;8.40;4.80;;;;;;;6.12;68.61;97954.16;25127;1314;3050336;-66
2022/02/18 11:19:21;;;;;;;8.00;4.50;;;;;;;6.00;68.70;97958.75;25195;1313;3053810;-65
2022/02/18 11:21:50;;;;;;;7.30;4.70;;;;;;;5.89;68.83;97947.13;25205;1314;3025828;-71
2022/02/18 11:24:21;;;;;;;13.20;4.70;;;;;;;5.71;69.20;97944.83;25197;1313;3027071;-67
2022/02/18 11:26:51;;;;;;;8.40;4.10;;;;;;;5.66;68.99;97948.77;25130;1315;3026428;-66
2022/02/18 11:29:21;;;;;;;12.60;5.70;;;;;;;5.66;68.71;97954.71;25178;1314;3026508;-68
2022/02/18 11:31:52;;;;;;;12.70;5.70;;;;;;;5.53;69.58;97956.37;25137;1314;3026698;-68
2022/02/18 11:34:42;;;;;;;10.00;5.30;;;;;;;5.65;68.94;97956.14;25111;1314;3047487;-68
2022/02/18 11:37:34;;;;;;;12.80;3.90;;;;;;;5.58;68.59;97962.87;25110;1314;3052219;-67
2022/02/18 11:40:37;;;;;;;7.60;3.70;;;;;;;5.32;69.22;97975.08;25140;1315;3052110;-70
2022/02/18 11:43:19;;;;;;;12.10;3.70;;;;;;;5.29;69.27;97991.41;25108;1314;3056280;-68
2022/02/18 11:46:03;;;;;;;5.60;3.20;;;;;;;5.29;69.39;97996.45;25107;1314;3049429;-67
2022/02/18 11:48:38;;;;;;;8.30;4.10;;;;;;;5.36;69.63;97995.33;25171;1314;3053325;-73